createdAt,value
2018-06-24T00:00:13.145Z,0
2018-06-24T00:01:12.643Z,0
2018-06-24T00:02:12.665Z,0
2018-06-24T00:03:13.203Z,0
2018-06-24T00:04:27.888Z,0
2018-06-24T00:06:13.011Z,0
2018-06-24T00:07:12.772Z,0
2018-06-24T00:08:12.800Z,0
2018-06-24T00:09:13.331Z,0
2018-06-24T00:10:28.015Z,0
2018-06-24T00:11:13.373Z,0
2018-06-24T00:12:28.055Z,0
2018-06-24T00:13:13.419Z,0
2018-06-24T00:14:12.985Z,0
2018-06-24T00:15:13.462Z,0
2018-06-24T00:16:13.256Z,0
2018-06-24T00:17:13.267Z,0
2018-06-24T00:18:13.529Z,0
2018-06-24T00:19:13.549Z,0
2018-06-24T00:20:13.320Z,0
2018-06-24T00:21:13.593Z,0
2018-06-24T00:22:28.017Z,0
2018-06-24T00:23:13.376Z,0
2018-06-24T00:24:13.656Z,0
2018-06-24T00:25:13.419Z,0
2018-06-24T00:26:13.697Z,0
2018-06-24T00:27:13.465Z,0
2018-06-24T00:28:28.404Z,0
2018-06-24T00:29:13.508Z,0
2018-06-24T00:30:28.450Z,0
2018-06-24T00:31:13.817Z,0
2018-06-24T00:32:28.487Z,0
2018-06-24T00:33:13.592Z,0
2018-06-24T00:34:13.873Z,0
2018-06-24T00:35:13.901Z,0
2018-06-24T00:36:13.919Z,0
2018-06-24T00:37:14.150Z,0
2018-06-24T00:38:13.699Z,0
2018-06-24T00:39:13.976Z,0
2018-06-24T00:40:28.668Z,0
2018-06-24T00:41:14.024Z,0
2018-06-24T00:42:14.045Z,0
2018-06-24T00:43:28.730Z,0
2018-06-24T00:45:14.112Z,0
2018-06-24T00:46:13.874Z,0
2018-06-24T00:47:14.158Z,0
2018-06-24T00:48:14.172Z,0
2018-06-24T00:49:14.197Z,0
2018-06-24T00:50:14.223Z,0
2018-06-24T00:51:14.243Z,0
2018-06-24T00:52:43.683Z,0
2018-06-24T00:53:14.283Z,0
2018-06-24T00:54:14.306Z,0
2018-06-24T00:55:14.068Z,0
2018-06-24T00:56:14.352Z,0
2018-06-24T00:57:14.371Z,0
2018-06-24T00:58:14.134Z,0
2018-06-24T00:59:14.412Z,0
2018-06-24T01:00:14.436Z,0
2018-06-24T01:01:14.473Z,0
2018-06-24T01:02:14.532Z,0
2018-06-24T01:03:14.604Z,0
2018-06-24T01:04:28.666Z,0
2018-06-24T01:05:14.549Z,0
2018-06-24T01:06:14.306Z,0
2018-06-24T01:07:14.337Z,0
2018-06-24T01:08:29.277Z,0
2018-06-24T01:09:14.370Z,0
2018-06-24T01:10:29.420Z,0
2018-06-24T01:11:14.161Z,0
2018-06-24T01:12:14.434Z,0
2018-06-24T01:13:29.379Z,0
2018-06-24T01:14:14.477Z,0
2018-06-24T01:15:29.419Z,0
2018-06-24T01:16:29.443Z,0
2018-06-24T01:17:14.550Z,0
2018-06-24T01:18:14.820Z,0
2018-06-24T01:19:14.585Z,0
2018-06-24T01:20:14.609Z,0
2018-06-24T01:21:14.896Z,0
2018-06-24T01:22:14.918Z,0
2018-06-24T01:23:14.930Z,0
2018-06-24T01:24:14.699Z,0
2018-06-24T01:25:14.982Z,0
2018-06-24T01:26:14.998Z,0
2018-06-24T01:27:15.015Z,0
2018-06-24T01:28:14.519Z,0
2018-06-24T01:29:29.738Z,0
2018-06-24T01:30:15.092Z,0
2018-06-24T01:31:29.763Z,0
2018-06-24T01:32:15.121Z,0
2018-06-24T01:33:29.803Z,0
2018-06-24T01:34:15.122Z,0
2018-06-24T01:35:14.670Z,0
2018-06-24T01:36:15.207Z,0
2018-06-24T01:37:15.233Z,0
2018-06-24T01:38:14.992Z,0
2018-06-24T01:39:29.933Z,0
2018-06-24T01:40:15.042Z,0
2018-06-24T01:41:15.318Z,0
2018-06-24T01:42:15.079Z,0
2018-06-24T01:43:15.101Z,0
2018-06-24T01:44:14.865Z,0
2018-06-24T01:45:15.144Z,0
2018-06-24T01:46:14.906Z,0
2018-06-24T01:47:30.292Z,0
2018-06-24T01:49:15.501Z,0
2018-06-24T01:50:15.515Z,0
2018-06-24T01:51:30.199Z,0
2018-06-24T01:53:15.318Z,0
2018-06-24T01:54:15.084Z,0
2018-06-24T01:55:15.617Z,0
2018-06-24T01:56:30.303Z,0
2018-06-24T01:57:15.662Z,0
2018-06-24T01:58:15.425Z,0
2018-06-24T01:59:15.446Z,0
2018-06-24T02:00:14.952Z,0
2018-06-24T02:01:15.487Z,0
2018-06-24T02:02:15.353Z,0
2018-06-24T02:03:30.191Z,0
2018-06-24T02:04:15.295Z,0
2018-06-24T02:05:30.237Z,0
2018-06-24T02:06:30.515Z,0
2018-06-24T02:08:15.640Z,0
2018-06-24T02:09:15.926Z,0
2018-06-24T02:10:15.691Z,0
2018-06-24T02:11:30.623Z,4
2018-06-24T02:12:15.995Z,4
2018-06-24T02:13:16.007Z,0
2018-06-24T02:14:16.028Z,4
2018-06-24T02:15:15.791Z,4
2018-06-24T02:16:15.818Z,4
2018-06-24T02:17:16.091Z,4
2018-06-24T02:18:30.772Z,4
2018-06-24T02:19:16.131Z,8
2018-06-24T02:20:30.818Z,4
2018-06-24T02:21:30.838Z,8
2018-06-24T02:22:15.952Z,8
2018-06-24T02:25:16.265Z,8
2018-06-24T02:26:16.289Z,8
2018-06-24T02:27:30.711Z,12
2018-06-24T02:28:15.816Z,12
2018-06-24T02:29:16.351Z,12
2018-06-24T02:30:16.387Z,12
2018-06-24T02:31:16.501Z,8
2018-06-24T02:32:31.082Z,12
2018-06-24T02:33:16.187Z,12
2018-06-24T02:34:16.459Z,12
2018-06-24T02:35:16.488Z,12
2018-06-24T02:36:31.273Z,16
2018-06-24T02:37:16.523Z,16
2018-06-24T02:38:16.287Z,16
2018-06-24T02:39:16.154Z,20
2018-06-24T02:40:16.590Z,20
2018-06-24T02:41:16.363Z,24
2018-06-24T02:42:16.646Z,24
2018-06-24T02:43:16.703Z,24
2018-06-24T02:44:16.689Z,24
2018-06-24T02:45:16.704Z,24
2018-06-24T02:46:16.717Z,24
2018-06-24T02:47:16.749Z,28
2018-06-24T02:48:16.505Z,44
2018-06-24T02:49:16.527Z,40
2018-06-24T02:50:31.476Z,40
2018-06-24T02:51:16.310Z,52
2018-06-24T02:52:16.593Z,64
2018-06-24T02:53:16.352Z,52
2018-06-24T02:54:16.674Z,60
2018-06-24T02:55:16.912Z,64
2018-06-24T02:56:16.937Z,60
2018-06-24T02:57:16.955Z,68
2018-06-24T02:58:16.722Z,80
2018-06-24T02:59:16.992Z,84
2018-06-24T03:00:16.763Z,96
2018-06-24T03:01:17.036Z,104
2018-06-24T03:02:17.068Z,112
2018-06-24T03:03:16.826Z,120
2018-06-24T03:04:17.118Z,140
2018-06-24T03:05:17.140Z,172
2018-06-24T03:06:31.806Z,192
2018-06-24T03:07:17.272Z,188
2018-06-24T03:08:16.941Z,180
2018-06-24T03:09:17.215Z,188
2018-06-24T03:10:17.234Z,200
2018-06-24T03:12:17.020Z,208
2018-06-24T03:13:17.059Z,232
2018-06-24T03:14:17.063Z,252
2018-06-24T03:15:17.344Z,256
2018-06-24T03:16:17.105Z,248
2018-06-24T03:17:31.792Z,216
2018-06-24T03:18:31.812Z,196
2018-06-24T03:19:17.175Z,220
2018-06-24T03:20:17.447Z,236
2018-06-24T03:21:17.472Z,288
2018-06-24T03:22:31.895Z,316
2018-06-24T03:23:17.251Z,284
2018-06-24T03:24:17.012Z,276
2018-06-24T03:25:17.294Z,284
2018-06-24T03:26:17.319Z,304
2018-06-24T03:27:17.595Z,320
2018-06-24T03:28:17.363Z,344
2018-06-24T03:29:17.640Z,396
2018-06-24T03:30:17.678Z,420
2018-06-24T03:31:32.345Z,440
2018-06-24T03:32:17.706Z,408
2018-06-24T03:33:17.721Z,400
2018-06-24T03:34:17.751Z,392
2018-06-24T03:35:17.513Z,420
2018-06-24T03:36:17.792Z,444
2018-06-24T03:37:17.906Z,524
2018-06-24T03:38:47.154Z,564
2018-06-24T03:39:17.851Z,568
2018-06-24T03:40:32.533Z,596
2018-06-24T03:41:32.298Z,596
2018-06-24T03:42:32.317Z,628
2018-06-24T03:43:17.680Z,668
2018-06-24T03:44:17.963Z,680
2018-06-24T03:45:17.982Z,656
2018-06-24T03:46:17.228Z,612
2018-06-24T03:47:18.026Z,604
2018-06-24T03:48:18.051Z,596
2018-06-24T03:49:17.806Z,508
2018-06-24T03:50:18.093Z,564
2018-06-24T03:51:18.211Z,620
2018-06-24T03:52:18.129Z,588
2018-06-24T03:53:32.560Z,516
2018-06-24T03:54:18.174Z,544
2018-06-24T03:55:17.942Z,608
2018-06-24T03:56:17.703Z,692
2018-06-24T03:57:18.235Z,640
2018-06-24T03:59:18.024Z,948
2018-06-24T04:00:33.007Z,844
2018-06-24T04:01:18.324Z,932
2018-06-24T04:02:18.082Z,1008
2018-06-24T04:03:18.367Z,1096
2018-06-24T04:04:18.389Z,1092
2018-06-24T04:05:18.410Z,928
2018-06-24T04:06:18.484Z,976
2018-06-24T04:07:18.193Z,1100
2018-06-24T04:08:18.482Z,880
2018-06-24T04:09:18.504Z,868
2018-06-24T04:10:18.515Z,972
2018-06-24T04:11:33.200Z,900
2018-06-24T04:12:18.049Z,1016
2018-06-24T04:13:18.636Z,1164
2018-06-24T04:14:18.612Z,1108
2018-06-24T04:15:18.629Z,1116
2018-06-24T04:16:18.406Z,1328
2018-06-24T04:17:18.668Z,1356
2018-06-24T04:18:33.482Z,1536
2018-06-24T04:19:18.707Z,1592
2018-06-24T04:20:18.733Z,1612
2018-06-24T04:22:18.519Z,1460
2018-06-24T04:23:18.553Z,1448
2018-06-24T04:24:18.557Z,1484
2018-06-24T04:25:33.501Z,1660
2018-06-24T04:26:18.602Z,1792
2018-06-24T04:27:33.546Z,1868
2018-06-24T04:28:18.999Z,1788
2018-06-24T04:29:18.924Z,1792
2018-06-24T04:30:18.950Z,1784
2018-06-24T04:31:33.636Z,1684
2018-06-24T04:32:18.988Z,1788
2018-06-24T04:34:19.039Z,1696
2018-06-24T04:35:18.794Z,1748
2018-06-24T04:36:33.479Z,1808
2018-06-24T04:37:19.106Z,1776
2018-06-24T04:38:19.124Z,1892
2018-06-24T04:39:19.155Z,1940
2018-06-24T04:40:19.160Z,1628
2018-06-24T04:41:33.845Z,2124
2018-06-24T04:42:19.209Z,2224
2018-06-24T04:43:18.713Z,2084
2018-06-24T04:44:33.909Z,1976
2018-06-24T04:45:19.268Z,1900
2018-06-24T04:46:19.294Z,2124
2018-06-24T04:47:19.310Z,2152
2018-06-24T04:48:19.334Z,2324
2018-06-24T04:49:19.369Z,2220
2018-06-24T04:50:19.380Z,2144
2018-06-24T04:51:19.407Z,2108
2018-06-24T04:52:19.427Z,2064
2018-06-24T04:53:33.860Z,2264
2018-06-24T04:54:19.462Z,2296
2018-06-24T04:55:19.233Z,2172
2018-06-24T04:56:19.510Z,2228
2018-06-24T04:57:34.192Z,2272
2018-06-24T04:58:19.292Z,2576
2018-06-24T04:59:19.581Z,2424
2018-06-24T05:00:19.345Z,2788
2018-06-24T05:01:19.359Z,2708
2018-06-24T05:02:19.645Z,2472
2018-06-24T05:03:19.681Z,2436
2018-06-24T05:04:19.681Z,2712
2018-06-24T05:05:19.454Z,2520
2018-06-24T05:06:19.519Z,2696
2018-06-24T05:07:34.152Z,3484
2018-06-24T05:08:19.513Z,3500
2018-06-24T05:09:19.789Z,3160
2018-06-24T05:10:19.813Z,2888
2018-06-24T05:11:19.576Z,3144
2018-06-24T05:12:19.864Z,2912
2018-06-24T05:13:34.539Z,2528
2018-06-24T05:14:19.901Z,2520
2018-06-24T05:15:20.027Z,2380
2018-06-24T05:16:34.353Z,2400
2018-06-24T05:17:34.368Z,2752
2018-06-24T05:18:19.732Z,2500
2018-06-24T05:19:20.108Z,2140
2018-06-24T05:20:19.776Z,2068
2018-06-24T05:21:34.717Z,2360
2018-06-24T05:22:20.082Z,2268
2018-06-24T05:23:34.757Z,1980
2018-06-24T05:24:19.608Z,2044
2018-06-24T05:25:19.625Z,1832
2018-06-24T05:26:19.909Z,2088
2018-06-24T05:27:20.183Z,2032
2018-06-24T05:28:34.866Z,2348
2018-06-24T05:29:20.236Z,2288
2018-06-24T05:30:34.910Z,2544
2018-06-24T05:31:20.276Z,3020
2018-06-24T05:33:34.718Z,3596
2018-06-24T05:34:20.340Z,3480
2018-06-24T05:35:20.358Z,3420
2018-06-24T05:36:35.053Z,3532
2018-06-24T05:37:20.413Z,3596
2018-06-24T05:38:20.426Z,3740
2018-06-24T05:39:20.189Z,2872
2018-06-24T05:40:20.466Z,2448
2018-06-24T05:41:20.489Z,2416
2018-06-24T05:42:20.521Z,2560
2018-06-24T05:43:20.023Z,2816
2018-06-24T05:44:20.559Z,3268
2018-06-24T05:45:35.240Z,2932
2018-06-24T05:46:35.261Z,2848
2018-06-24T05:47:20.621Z,2564
2018-06-24T05:48:20.643Z,2588
2018-06-24T05:49:20.672Z,2196
2018-06-24T05:50:20.436Z,2228
2018-06-24T05:51:20.718Z,2344
2018-06-24T05:52:20.474Z,2328
2018-06-24T05:53:20.508Z,2100
2018-06-24T05:54:20.962Z,2228
2018-06-24T05:55:20.546Z,2200
2018-06-24T05:56:20.823Z,2188
2018-06-24T05:57:20.844Z,2332
2018-06-24T05:58:20.861Z,2488
2018-06-24T05:59:20.884Z,2468
2018-06-24T06:00:50.279Z,2576
2018-06-24T06:01:20.929Z,2488
2018-06-24T06:02:20.954Z,2544
2018-06-24T06:03:20.716Z,2604
2018-06-24T06:04:21.000Z,2832
2018-06-24T06:05:20.762Z,2488
2018-06-24T06:06:21.044Z,2288
2018-06-24T06:08:35.742Z,2044
2018-06-24T06:09:21.106Z,2268
2018-06-24T06:10:21.584Z,3104
2018-06-24T06:11:20.891Z,3564
2018-06-24T06:12:21.187Z,4012
2018-06-24T06:13:20.934Z,4204
2018-06-24T06:14:21.217Z,4024
2018-06-24T06:15:21.235Z,3428
2018-06-24T06:16:35.923Z,3972
2018-06-24T06:17:35.690Z,3860
2018-06-24T06:19:21.322Z,3756
2018-06-24T06:20:21.343Z,3836
2018-06-24T06:24:21.180Z,3784
2018-06-24T06:25:21.454Z,3320
2018-06-24T06:26:35.882Z,3176
2018-06-24T06:27:36.175Z,3464
2018-06-24T06:28:21.527Z,3148
2018-06-24T06:29:21.558Z,2796
2018-06-24T06:30:21.841Z,2716
2018-06-24T06:31:21.340Z,2264
2018-06-24T06:33:21.648Z,1892
2018-06-24T06:34:21.654Z,2072
2018-06-24T06:35:21.685Z,2256
2018-06-24T06:37:21.471Z,2636
2018-06-24T06:38:21.750Z,2704
2018-06-24T06:39:21.505Z,2828
2018-06-24T06:40:36.449Z,2992
2018-06-24T06:41:21.815Z,3096
2018-06-24T06:42:21.829Z,3228
2018-06-24T06:43:21.855Z,3360
2018-06-24T06:44:21.876Z,3984
2018-06-24T06:45:22.849Z,4280
2018-06-24T06:46:21.921Z,3944
2018-06-24T06:47:21.948Z,3840
2018-06-24T06:48:36.366Z,4836
2018-06-24T06:49:21.986Z,5260
2018-06-24T06:50:21.757Z,5140
2018-06-24T06:51:21.780Z,4440
2018-06-24T06:52:36.454Z,5048
2018-06-24T06:53:22.081Z,4964
2018-06-24T06:54:22.096Z,6044
2018-06-24T06:55:21.866Z,7200
2018-06-24T06:56:22.149Z,6700
2018-06-24T06:57:21.909Z,5856
2018-06-24T06:58:22.202Z,4616
2018-06-24T06:59:21.693Z,4704
2018-06-24T07:00:22.349Z,4016
2018-06-24T07:01:21.996Z,3796
2018-06-24T07:02:22.025Z,3624
2018-06-24T07:03:36.708Z,3852
2018-06-24T07:04:22.317Z,3992
2018-06-24T07:05:22.349Z,4236
2018-06-24T07:06:22.369Z,4716
2018-06-24T07:07:36.789Z,4708
2018-06-24T07:08:22.408Z,4160
2018-06-24T07:09:22.433Z,4708
2018-06-24T07:10:22.450Z,4980
2018-06-24T07:11:21.956Z,5736
2018-06-24T07:12:22.497Z,6256
2018-06-24T07:13:22.523Z,5564
2018-06-24T07:14:22.550Z,6544
2018-06-24T07:15:22.618Z,7460
2018-06-24T07:16:22.330Z,5660
2018-06-24T07:17:22.358Z,5608
2018-06-24T07:18:22.640Z,5320
2018-06-24T07:19:22.140Z,4888
2018-06-24T07:20:22.682Z,4724
2018-06-24T07:21:22.699Z,4296
2018-06-24T07:22:37.389Z,5924
2018-06-24T07:23:22.487Z,5392
2018-06-24T07:25:37.457Z,4776
2018-06-24T07:26:22.559Z,5496
2018-06-24T07:27:22.584Z,5296
2018-06-24T07:28:22.599Z,5928
2018-06-24T07:29:22.881Z,7744
2018-06-24T07:30:22.742Z,8444
2018-06-24T07:31:22.668Z,8756
2018-06-24T07:32:22.691Z,9920
2018-06-24T07:33:23.286Z,11512
2018-06-24T07:34:22.738Z,11260
2018-06-24T07:35:37.420Z,11276
2018-06-24T07:36:22.521Z,11532
2018-06-24T07:37:22.550Z,10952
2018-06-24T07:38:23.079Z,9352
2018-06-24T07:39:23.049Z,9160
2018-06-24T07:41:23.151Z,8128
2018-06-24T07:42:22.921Z,8436
2018-06-24T07:43:22.680Z,6972
2018-06-24T07:44:37.889Z,5500
2018-06-24T07:45:23.239Z,4056
2018-06-24T07:46:23.263Z,3772
2018-06-24T07:47:23.285Z,4348
2018-06-24T07:48:23.054Z,3992
2018-06-24T07:49:23.334Z,4260
2018-06-24T07:50:23.648Z,4620
2018-06-24T07:51:37.781Z,4936
2018-06-24T07:52:23.406Z,5232
2018-06-24T07:53:23.165Z,5860
2018-06-24T07:54:23.458Z,5960
2018-06-24T07:55:23.472Z,6492
2018-06-24T07:56:23.494Z,6556
2018-06-24T07:57:38.202Z,4876
2018-06-24T07:58:23.026Z,5456
2018-06-24T07:59:23.310Z,5096
2018-06-24T08:00:23.581Z,5056
2018-06-24T08:01:23.606Z,5168
2018-06-24T08:02:23.372Z,5388
2018-06-24T08:03:23.922Z,5224
2018-06-24T08:04:23.673Z,5780
2018-06-24T08:05:38.537Z,6556
2018-06-24T08:07:38.405Z,7176
2018-06-24T08:08:38.427Z,8456
2018-06-24T08:09:23.534Z,7704
2018-06-24T08:10:38.470Z,7584
2018-06-24T08:11:38.668Z,7492
2018-06-24T08:13:23.881Z,8076
2018-06-24T08:15:23.666Z,7432
2018-06-24T08:18:38.650Z,6080
2018-06-24T08:19:24.018Z,5900
2018-06-24T08:20:24.036Z,5708
2018-06-24T08:22:38.749Z,4052
2018-06-24T08:23:38.870Z,3512
2018-06-24T08:24:38.795Z,3332
2018-06-24T08:25:23.898Z,3444
2018-06-24T08:26:24.173Z,3944
2018-06-24T08:27:24.201Z,3816
2018-06-24T08:28:23.966Z,3896
2018-06-24T08:29:38.916Z,4204
2018-06-24T08:30:24.270Z,4288
2018-06-24T08:31:24.293Z,4700
2018-06-24T08:32:24.318Z,5072
2018-06-24T08:33:24.337Z,5360
2018-06-24T08:34:24.359Z,5304
2018-06-24T08:35:39.048Z,5712
2018-06-24T08:36:23.898Z,6244
2018-06-24T08:38:39.109Z,6664
2018-06-24T08:39:24.225Z,7008
2018-06-24T08:40:24.596Z,6692
2018-06-24T08:41:24.372Z,6168
2018-06-24T08:42:24.544Z,6172
2018-06-24T08:43:24.314Z,6060
2018-06-24T08:45:24.356Z,8164
2018-06-24T08:46:23.860Z,6868
2018-06-24T08:47:24.969Z,6328
2018-06-24T08:48:24.679Z,6528
2018-06-24T08:49:24.706Z,6220
2018-06-24T08:50:39.389Z,5072
2018-06-24T08:51:24.488Z,4476
2018-06-24T08:52:39.449Z,5592
2018-06-24T08:53:24.595Z,5344
2018-06-24T08:54:25.053Z,5920
2018-06-24T08:55:39.499Z,5924
2018-06-24T08:56:24.608Z,5640
2018-06-24T08:57:24.992Z,4676
2018-06-24T08:58:24.645Z,4156
2018-06-24T08:59:24.929Z,4764
2018-06-24T09:00:24.956Z,6184
2018-06-24T09:01:24.715Z,6864
2018-06-24T09:02:24.741Z,6236
2018-06-24T09:03:39.680Z,7312
2018-06-24T09:04:25.046Z,8796
2018-06-24T09:05:25.165Z,9696
2018-06-24T09:06:24.888Z,9484
2018-06-24T09:07:24.854Z,8448
2018-06-24T09:08:24.874Z,8040
2018-06-24T09:09:24.900Z,7984
2018-06-24T09:10:39.848Z,7492
2018-06-24T09:11:24.947Z,9304
2018-06-24T09:12:24.971Z,8016
2018-06-24T09:13:25.245Z,7788
2018-06-24T09:14:39.712Z,8320
2018-06-24T09:15:39.466Z,8732
2018-06-24T09:16:25.325Z,10056
2018-06-24T09:18:39.768Z,12996
2018-06-24T09:19:24.875Z,13112
2018-06-24T09:20:25.409Z,12816
2018-06-24T09:21:25.360Z,14160
2018-06-24T09:22:25.511Z,13680
2018-06-24T09:23:25.480Z,13580
2018-06-24T09:24:40.176Z,16332
2018-06-24T09:25:25.010Z,14316
2018-06-24T09:26:40.216Z,13564
2018-06-24T09:27:25.322Z,15060
2018-06-24T09:28:25.337Z,19072
2018-06-24T09:29:25.616Z,18208
2018-06-24T09:30:25.645Z,16208
2018-06-24T09:31:25.410Z,15956
2018-06-24T09:32:25.706Z,16404
2018-06-24T09:34:25.745Z,14448
2018-06-24T09:35:25.499Z,12292
2018-06-24T09:36:25.786Z,13092
2018-06-24T09:37:25.551Z,12772
2018-06-24T09:38:25.571Z,15576
2018-06-24T09:39:40.521Z,13788
2018-06-24T09:40:25.926Z,17472
2018-06-24T09:41:25.907Z,19424
2018-06-24T09:42:55.255Z,18016
2018-06-24T09:43:25.955Z,17280
2018-06-24T09:44:40.640Z,13340
2018-06-24T09:45:25.741Z,12908
2018-06-24T09:46:26.023Z,11488
2018-06-24T09:47:25.532Z,12084
2018-06-24T09:48:26.073Z,12744
2018-06-24T09:49:26.105Z,9040
2018-06-24T09:50:26.174Z,9136
2018-06-24T09:51:26.156Z,9596
2018-06-24T09:52:26.170Z,9588
2018-06-24T09:53:25.935Z,8624
2018-06-24T09:54:26.015Z,9092
2018-06-24T09:55:26.241Z,9576
2018-06-24T09:56:26.006Z,13616
2018-06-24T09:57:26.287Z,14724
2018-06-24T09:58:40.971Z,9764
2018-06-24T09:59:26.336Z,10956
2018-06-24T10:00:26.364Z,12172
2018-06-24T10:01:26.127Z,12088
2018-06-24T10:02:26.407Z,11304
2018-06-24T10:03:40.575Z,14948
2018-06-24T10:04:26.195Z,13396
2018-06-24T10:05:41.154Z,14724
2018-06-24T10:06:26.503Z,14208
2018-06-24T10:07:26.526Z,15424
2018-06-24T10:08:41.219Z,15936
2018-06-24T10:09:26.574Z,16276
2018-06-24T10:10:26.601Z,16720
2018-06-24T10:11:26.366Z,14268
2018-06-24T10:12:26.644Z,14532
2018-06-24T10:13:41.338Z,15224
2018-06-24T10:14:26.693Z,16784
2018-06-24T10:15:26.720Z,15524
2018-06-24T10:16:26.749Z,13768
2018-06-24T10:17:41.474Z,12624
2018-06-24T10:18:26.795Z,12372
2018-06-24T10:20:26.847Z,12408
2018-06-24T10:21:41.528Z,14848
2018-06-24T10:22:26.631Z,14508
2018-06-24T10:23:26.914Z,12676
2018-06-24T10:24:26.421Z,12356
2018-06-24T10:25:27.266Z,13460
2018-06-24T10:26:41.658Z,12280
2018-06-24T10:27:26.750Z,9652
2018-06-24T10:28:26.777Z,8508
2018-06-24T10:29:27.266Z,9496
2018-06-24T10:30:27.089Z,12220
2018-06-24T10:32:26.614Z,17888
2018-06-24T10:33:27.155Z,15440
2018-06-24T10:34:26.924Z,15020
2018-06-24T10:35:26.952Z,15564
2018-06-24T10:36:26.972Z,14980
2018-06-24T10:37:27.370Z,15624
2018-06-24T10:38:27.278Z,15692
2018-06-24T10:39:27.310Z,13716
2018-06-24T10:40:27.328Z,13256
2018-06-24T10:41:27.363Z,15748
2018-06-24T10:42:27.128Z,17344
2018-06-24T10:43:27.137Z,16128
2018-06-24T10:45:41.951Z,10672
2018-06-24T10:46:27.526Z,8476
2018-06-24T10:47:27.507Z,8108
2018-06-24T10:48:27.523Z,7728
2018-06-24T10:49:27.029Z,8592
2018-06-24T10:50:27.053Z,9792
2018-06-24T10:51:27.335Z,10772
2018-06-24T10:52:27.367Z,10772
2018-06-24T10:53:27.389Z,10756
2018-06-24T10:54:27.418Z,10388
2018-06-24T10:55:27.793Z,10364
2018-06-24T10:56:27.723Z,12060
2018-06-24T10:57:27.744Z,11668
2018-06-24T10:58:27.505Z,11056
2018-06-24T10:59:42.198Z,8180
2018-06-24T11:00:27.559Z,5588
2018-06-24T11:01:42.496Z,5616
2018-06-24T11:02:27.603Z,8904
2018-06-24T11:03:27.370Z,10764
2018-06-24T11:04:27.656Z,9336
2018-06-24T11:05:27.936Z,11292
2018-06-24T11:07:27.984Z,14692
2018-06-24T11:08:27.748Z,16196
2018-06-24T11:09:27.516Z,17408
2018-06-24T11:10:27.795Z,17568
2018-06-24T11:11:28.087Z,16660
2018-06-24T11:12:27.845Z,17504
2018-06-24T11:13:28.135Z,16488
2018-06-24T11:14:28.151Z,16480
2018-06-24T11:15:28.173Z,16572
2018-06-24T11:16:28.353Z,14524
2018-06-24T11:17:42.895Z,13416
2018-06-24T11:18:28.246Z,13060
2018-06-24T11:19:28.014Z,13792
2018-06-24T11:20:42.701Z,12380
2018-06-24T11:21:28.320Z,8248
2018-06-24T11:23:28.367Z,4004
2018-06-24T11:24:28.399Z,4716
2018-06-24T11:25:28.162Z,6276
2018-06-24T11:26:28.444Z,8380
2018-06-24T11:27:28.212Z,10424
2018-06-24T11:28:28.499Z,11168
2018-06-24T11:29:28.522Z,11488
2018-06-24T11:30:28.283Z,11084
2018-06-24T11:31:42.976Z,9516
2018-06-24T11:32:28.593Z,9492
2018-06-24T11:33:43.272Z,7132
2018-06-24T11:34:28.383Z,6000
2018-06-24T11:35:28.406Z,5004
2018-06-24T11:36:28.688Z,5296
2018-06-24T11:37:28.707Z,5940
2018-06-24T11:38:28.481Z,6340
2018-06-24T11:39:28.499Z,5048
2018-06-24T11:40:28.791Z,5296
2018-06-24T11:41:28.294Z,7300
2018-06-24T11:42:28.831Z,10212
2018-06-24T11:43:43.520Z,12180
2018-06-24T11:44:43.546Z,13460
2018-06-24T11:45:28.904Z,14928
2018-06-24T11:46:29.031Z,13352
2018-06-24T11:47:28.952Z,13452
2018-06-24T11:48:43.382Z,9648
2018-06-24T11:49:28.746Z,8792
2018-06-24T11:50:29.223Z,8164
2018-06-24T11:51:29.046Z,6632
2018-06-24T11:52:28.819Z,6868
2018-06-24T11:53:43.754Z,6716
2018-06-24T11:54:29.126Z,6236
2018-06-24T11:55:43.807Z,5600
2018-06-24T11:56:43.831Z,5924
2018-06-24T11:57:29.199Z,6028
2018-06-24T11:58:29.217Z,6020
2018-06-24T11:59:43.908Z,6116
2018-06-24T12:00:29.421Z,6256
2018-06-24T12:01:29.286Z,7060
2018-06-24T12:02:29.339Z,8972
2018-06-24T12:03:29.337Z,10992
2018-06-24T12:05:29.140Z,11328
2018-06-24T12:06:44.074Z,11908
2018-06-24T12:07:28.661Z,12060
2018-06-24T12:08:29.457Z,12872
2018-06-24T12:09:28.967Z,13912
2018-06-24T12:10:28.990Z,13556
2018-06-24T12:11:29.529Z,14528
2018-06-24T12:12:29.295Z,13316
2018-06-24T12:13:29.581Z,13212
2018-06-24T12:14:29.344Z,13740
2018-06-24T12:15:29.124Z,13664
2018-06-24T12:16:29.652Z,12596
2018-06-24T12:17:30.279Z,12252
2018-06-24T12:18:29.704Z,11936
2018-06-24T12:19:29.732Z,12736
2018-06-24T12:20:44.150Z,13324
2018-06-24T12:21:44.436Z,14008
2018-06-24T12:25:29.353Z,17632
2018-06-24T12:26:29.640Z,18144
2018-06-24T12:27:29.916Z,18208
2018-06-24T12:28:29.684Z,17152
2018-06-24T12:29:29.708Z,16660
2018-06-24T12:30:29.992Z,16312
2018-06-24T12:31:29.506Z,16344
2018-06-24T12:32:30.045Z,15684
2018-06-24T12:33:29.554Z,15224
2018-06-24T12:34:29.832Z,14760
2018-06-24T12:35:30.113Z,14076
2018-06-24T12:36:44.621Z,14372
2018-06-24T12:37:30.066Z,15132
2018-06-24T12:38:44.851Z,15876
2018-06-24T12:39:30.311Z,16116
2018-06-24T12:40:29.983Z,15516
2018-06-24T12:41:30.013Z,14624
2018-06-24T12:42:30.037Z,11652
2018-06-24T12:43:30.254Z,9432
2018-06-24T12:44:30.082Z,8720
2018-06-24T12:46:30.393Z,7224
2018-06-24T12:47:30.416Z,7628
2018-06-24T12:48:30.443Z,8824
2018-06-24T12:49:30.204Z,9600
2018-06-24T12:50:44.992Z,10120
2018-06-24T12:51:30.515Z,10556
2018-06-24T12:52:45.309Z,9516
2018-06-24T12:53:45.223Z,6472
2018-06-24T12:54:30.327Z,5416
2018-06-24T12:55:30.616Z,5884
2018-06-24T12:57:30.664Z,6744
2018-06-24T12:58:31.315Z,6272
2018-06-24T12:59:31.613Z,5532
2018-06-24T13:00:33.312Z,4432
2018-06-24T13:01:30.500Z,4572
2018-06-24T13:02:30.786Z,4016
2018-06-24T13:03:30.806Z,3980
2018-06-24T13:04:30.830Z,4252
2018-06-24T13:05:30.744Z,5548
2018-06-24T13:06:30.879Z,6488
2018-06-24T13:07:30.389Z,7280
2018-06-24T13:08:45.598Z,8208
2018-06-24T13:09:30.699Z,8840
2018-06-24T13:10:45.380Z,9880
2018-06-24T13:11:30.753Z,10468
2018-06-24T13:12:30.765Z,10688
2018-06-24T13:13:30.891Z,11196
2018-06-24T13:14:30.814Z,12440
2018-06-24T13:15:30.837Z,12908
2018-06-24T13:16:30.865Z,12924
2018-06-24T13:17:45.810Z,13252
2018-06-24T13:18:30.654Z,12832
2018-06-24T13:19:30.941Z,13020
2018-06-24T13:20:30.959Z,13016
2018-06-24T13:21:30.988Z,12000
2018-06-24T13:22:31.278Z,11936
2018-06-24T13:23:45.696Z,12352
2018-06-24T13:24:31.317Z,12316
2018-06-24T13:25:31.354Z,12112
2018-06-24T13:26:31.386Z,11588
2018-06-24T13:27:31.402Z,12064
2018-06-24T13:28:31.412Z,11176
2018-06-24T13:29:46.103Z,10468
2018-06-24T13:30:31.461Z,11596
2018-06-24T13:31:31.486Z,12580
2018-06-24T13:32:31.251Z,12636
2018-06-24T13:33:46.196Z,12376
2018-06-24T13:34:45.971Z,11932
2018-06-24T13:35:31.080Z,11760
2018-06-24T13:36:31.614Z,11848
2018-06-24T13:37:31.116Z,11712
2018-06-24T13:38:31.657Z,12340
2018-06-24T13:39:31.729Z,12236
2018-06-24T13:40:31.919Z,12096
2018-06-24T13:41:31.736Z,11300
2018-06-24T13:42:31.610Z,10320
2018-06-24T13:43:31.781Z,11040
2018-06-24T13:44:45.954Z,11300
2018-06-24T13:45:46.493Z,11392
2018-06-24T13:46:31.341Z,11580
2018-06-24T13:47:31.879Z,11608
2018-06-24T13:48:31.387Z,11768
2018-06-24T13:49:46.331Z,12156
2018-06-24T13:50:31.437Z,12288
2018-06-24T13:51:31.977Z,12236
2018-06-24T13:52:31.744Z,12596
2018-06-24T13:53:31.509Z,12768
2018-06-24T13:54:31.534Z,12456
2018-06-24T13:56:31.839Z,11332
2018-06-24T13:57:32.122Z,10868
2018-06-24T13:58:31.895Z,10532
2018-06-24T13:59:31.673Z,9720
2018-06-24T14:00:46.605Z,10072
2018-06-24T14:01:32.224Z,9956
2018-06-24T14:02:31.992Z,10192
2018-06-24T14:03:32.026Z,10044
2018-06-24T14:04:46.982Z,10348
2018-06-24T14:06:32.344Z,10824
2018-06-24T14:07:32.431Z,11412
2018-06-24T14:08:32.135Z,12472
2018-06-24T14:09:32.160Z,12164
2018-06-24T14:10:47.108Z,13016
2018-06-24T14:11:46.872Z,12860
2018-06-24T14:12:32.235Z,13148
2018-06-24T14:13:32.520Z,13060